sensor_id;sensor_type;location;lat;lon;timestamp;temperature;humidity
3713;DHT22;1872;51.406;6.856;2022-12-29T00:00:07;9.90;99.90
3713;DHT22;1872;51.406;6.856;2022-12-29T00:02:33;9.90;99.90
3713;DHT22;1872;51.406;6.856;2022-12-29T00:04:59;9.90;99.90
3713;DHT22;1872;51.406;6.856;2022-12-29T00:07:24;10.00;99.90
3713;DHT22;1872;51.406;6.856;2022-12-29T00:09:50;9.90;99.90
3713;DHT22;1872;51.406;6.856;2022-12-29T00:12:16;9.90;99.90
3713;DHT22;1872;51.406;6.856;2022-12-29T00:14:41;9.90;99.90
3713;DHT22;1872;51.406;6.856;2022-12-29T00:17:25;10.00;99.90
3713;DHT22;1872;51.406;6.856;2022-12-29T00:19:51;9.90;99.90
3713;DHT22;1872;51.406;6.856;2022-12-29T00:22:36;9.90;99.90
3713;DHT22;1872;51.406;6.856;2022-12-29T00:25:20;9.90;99.90
3713;DHT22;1872;51.406;6.856;2022-12-29T00:28:04;9.90;99.90
3713;DHT22;1872;51.406;6.856;2022-12-29T00:30:48;9.90;99.90
3713;DHT22;1872;51.406;6.856;2022-12-29T00:33:33;9.90;99.90
3713;DHT22;1872;51.406;6.856;2022-12-29T00:38:52;9.90;99.90
3713;DHT22;1872;51.406;6.856;2022-12-29T00:41:39;9.90;99.90
3713;DHT22;1872;51.406;6.856;2022-12-29T00:44:23;9.90;99.90
3713;DHT22;1872;51.406;6.856;2022-12-29T00:46:48;9.90;99.90
3713;DHT22;1872;51.406;6.856;2022-12-29T00:49:15;9.90;99.90
3713;DHT22;1872;51.406;6.856;2022-12-29T00:52:08;10.00;99.90
3713;DHT22;1872;51.406;6.856;2022-12-29T00:54:36;9.90;99.90
3713;DHT22;1872;51.406;6.856;2022-12-29T00:57:03;9.90;99.90
3713;DHT22;1872;51.406;6.856;2022-12-29T00:59:30;9.90;99.90
3713;DHT22;1872;51.406;6.856;2022-12-29T01:01:56;9.90;99.90
3713;DHT22;1872;51.406;6.856;2022-12-29T01:04:23;9.90;99.90
3713;DHT22;1872;51.406;6.856;2022-12-29T01:06:49;9.90;99.90
3713;DHT22;1872;51.406;6.856;2022-12-29T01:09:16;10.00;99.90
3713;DHT22;1872;51.406;6.856;2022-12-29T01:12:02;10.00;99.90
3713;DHT22;1872;51.406;6.856;2022-12-29T01:14:28;10.00;99.90
3713;DHT22;1872;51.406;6.856;2022-12-29T01:16:54;10.00;99.90
3713;DHT22;1872;51.406;6.856;2022-12-29T01:19:20;10.00;99.90
3713;DHT22;1872;51.406;6.856;2022-12-29T01:21:47;10.00;99.90
3713;DHT22;1872;51.406;6.856;2022-12-29T01:24:13;10.10;99.90
3713;DHT22;1872;51.406;6.856;2022-12-29T01:26:39;10.10;99.90
3713;DHT22;1872;51.406;6.856;2022-12-29T01:29:05;10.20;99.90
3713;DHT22;1872;51.406;6.856;2022-12-29T01:31:30;10.20;99.90
3713;DHT22;1872;51.406;6.856;2022-12-29T01:33:56;10.30;99.90
3713;DHT22;1872;51.406;6.856;2022-12-29T01:36:21;10.30;99.90
3713;DHT22;1872;51.406;6.856;2022-12-29T01:38:47;10.30;99.90
3713;DHT22;1872;51.406;6.856;2022-12-29T01:41:14;10.40;99.90
3713;DHT22;1872;51.406;6.856;2022-12-29T01:43:55;10.40;99.90
3713;DHT22;1872;51.406;6.856;2022-12-29T01:46:36;10.40;99.90
3713;DHT22;1872;51.406;6.856;2022-12-29T01:49:22;10.50;99.90
3713;DHT22;1872;51.406;6.856;2022-12-29T01:51:53;10.50;99.90
3713;DHT22;1872;51.406;6.856;2022-12-29T01:54:25;10.60;99.90
3713;DHT22;1872;51.406;6.856;2022-12-29T01:56:53;10.70;99.90
3713;DHT22;1872;51.406;6.856;2022-12-29T01:59:24;10.70;99.90
3713;DHT22;1872;51.406;6.856;2022-12-29T02:01:52;10.70;99.90
3713;DHT22;1872;51.406;6.856;2022-12-29T02:04:18;10.70;99.90
3713;DHT22;1872;51.406;6.856;2022-12-29T02:07:05;10.70;99.90
3713;DHT22;1872;51.406;6.856;2022-12-29T02:09:32;10.80;99.90
3713;DHT22;1872;51.406;6.856;2022-12-29T02:11:59;10.80;99.90
3713;DHT22;1872;51.406;6.856;2022-12-29T02:14:25;10.80;99.90
3713;DHT22;1872;51.406;6.856;2022-12-29T02:17:09;10.80;99.90
3713;DHT22;1872;51.406;6.856;2022-12-29T02:36:25;10.80;99.90
3713;DHT22;1872;51.406;6.856;2022-12-29T02:39:15;10.80;99.90
3713;DHT22;1872;51.406;6.856;2022-12-29T02:42:22;10.90;99.90
3713;DHT22;1872;51.406;6.856;2022-12-29T02:47:41;10.90;99.90
3713;DHT22;1872;51.406;6.856;2022-12-29T02:50:30;10.90;99.90
3713;DHT22;1872;51.406;6.856;2022-12-29T02:53:00;10.90;99.90
3713;DHT22;1872;51.406;6.856;2022-12-29T02:55:27;10.90;99.90
3713;DHT22;1872;51.406;6.856;2022-12-29T03:00:37;10.90;99.90
3713;DHT22;1872;51.406;6.856;2022-12-29T03:03:29;10.90;99.90
3713;DHT22;1872;51.406;6.856;2022-12-29T03:06:02;10.90;99.90
3713;DHT22;1872;51.406;6.856;2022-12-29T03:08:34;10.90;99.90
3713;DHT22;1872;51.406;6.856;2022-12-29T03:11:05;10.90;99.90
3713;DHT22;1872;51.406;6.856;2022-12-29T03:14:39;10.90;99.90
3713;DHT22;1872;51.406;6.856;2022-12-29T03:17:09;11.00;99.90
3713;DHT22;1872;51.406;6.856;2022-12-29T03:19:44;11.00;99.90
3713;DHT22;1872;51.406;6.856;2022-12-29T03:22:19;11.00;99.90
3713;DHT22;1872;51.406;6.856;2022-12-29T03:27:49;10.90;99.90
3713;DHT22;1872;51.406;6.856;2022-12-29T03:30:15;11.00;99.90
3713;DHT22;1872;51.406;6.856;2022-12-29T03:32:48;11.00;99.90
3713;DHT22;1872;51.406;6.856;2022-12-29T03:35:17;11.00;99.90
3713;DHT22;1872;51.406;6.856;2022-12-29T03:37:51;11.00;99.90
3713;DHT22;1872;51.406;6.856;2022-12-29T03:40:19;11.10;99.90
3713;DHT22;1872;51.406;6.856;2022-12-29T03:42:47;11.10;99.90
3713;DHT22;1872;51.406;6.856;2022-12-29T03:45:13;11.10;99.90
3713;DHT22;1872;51.406;6.856;2022-12-29T03:47:39;11.10;99.90
3713;DHT22;1872;51.406;6.856;2022-12-29T03:50:05;11.10;99.90
3713;DHT22;1872;51.406;6.856;2022-12-29T03:52:31;11.10;99.90
3713;DHT22;1872;51.406;6.856;2022-12-29T03:54:57;11.10;99.90
3713;DHT22;1872;51.406;6.856;2022-12-29T03:57:22;11.10;99.90
3713;DHT22;1872;51.406;6.856;2022-12-29T03:59:48;11.10;99.90
3713;DHT22;1872;51.406;6.856;2022-12-29T04:02:15;11.10;99.90
3713;DHT22;1872;51.406;6.856;2022-12-29T04:04:40;11.10;99.90
3713;DHT22;1872;51.406;6.856;2022-12-29T04:07:06;11.10;99.90
3713;DHT22;1872;51.406;6.856;2022-12-29T04:09:31;11.10;99.90
3713;DHT22;1872;51.406;6.856;2022-12-29T04:11:57;11.20;99.90
3713;DHT22;1872;51.406;6.856;2022-12-29T04:14:23;11.20;99.90
3713;DHT22;1872;51.406;6.856;2022-12-29T04:16:48;11.20;99.90
3713;DHT22;1872;51.406;6.856;2022-12-29T04:19:14;11.20;99.90
3713;DHT22;1872;51.406;6.856;2022-12-29T04:21:39;11.20;99.90
3713;DHT22;1872;51.406;6.856;2022-12-29T04:24:06;11.30;99.90
3713;DHT22;1872;51.406;6.856;2022-12-29T04:26:32;11.30;99.90
3713;DHT22;1872;51.406;6.856;2022-12-29T04:28:58;11.30;99.90
3713;DHT22;1872;51.406;6.856;2022-12-29T04:31:23;11.30;99.90
3713;DHT22;1872;51.406;6.856;2022-12-29T04:33:49;11.40;99.90
3713;DHT22;1872;51.406;6.856;2022-12-29T04:36:15;11.40;99.90
3713;DHT22;1872;51.406;6.856;2022-12-29T04:38:40;11.40;99.90
3713;DHT22;1872;51.406;6.856;2022-12-29T04:41:06;11.40;99.90
3713;DHT22;1872;51.406;6.856;2022-12-29T04:43:32;11.40;99.90
3713;DHT22;1872;51.406;6.856;2022-12-29T04:45:57;11.40;99.90
3713;DHT22;1872;51.406;6.856;2022-12-29T04:48:23;11.40;99.90
3713;DHT22;1872;51.406;6.856;2022-12-29T04:50:49;11.40;99.90
3713;DHT22;1872;51.406;6.856;2022-12-29T04:53:16;11.40;99.90
3713;DHT22;1872;51.406;6.856;2022-12-29T04:55:42;11.50;99.90
3713;DHT22;1872;51.406;6.856;2022-12-29T04:58:07;11.50;99.90
3713;DHT22;1872;51.406;6.856;2022-12-29T05:00:33;11.50;99.90
3713;DHT22;1872;51.406;6.856;2022-12-29T05:02:59;11.50;99.90
3713;DHT22;1872;51.406;6.856;2022-12-29T05:05:24;11.50;99.90
3713;DHT22;1872;51.406;6.856;2022-12-29T05:07:50;11.40;99.90
3713;DHT22;1872;51.406;6.856;2022-12-29T05:10:16;11.40;99.90
3713;DHT22;1872;51.406;6.856;2022-12-29T05:12:42;11.40;99.90
3713;DHT22;1872;51.406;6.856;2022-12-29T05:15:09;11.40;99.90
3713;DHT22;1872;51.406;6.856;2022-12-29T05:17:35;11.40;99.90
3713;DHT22;1872;51.406;6.856;2022-12-29T05:20:01;11.40;99.90
3713;DHT22;1872;51.406;6.856;2022-12-29T05:22:26;11.40;99.90
3713;DHT22;1872;51.406;6.856;2022-12-29T05:24:52;11.40;99.90
3713;DHT22;1872;51.406;6.856;2022-12-29T05:27:17;11.40;99.90
3713;DHT22;1872;51.406;6.856;2022-12-29T05:29:43;11.30;99.90
3713;DHT22;1872;51.406;6.856;2022-12-29T05:32:09;11.30;99.90
3713;DHT22;1872;51.406;6.856;2022-12-29T05:34:34;11.40;99.90
3713;DHT22;1872;51.406;6.856;2022-12-29T05:37:00;11.40;99.90
3713;DHT22;1872;51.406;6.856;2022-12-29T05:39:26;11.50;99.90
3713;DHT22;1872;51.406;6.856;2022-12-29T05:41:52;11.40;99.90
3713;DHT22;1872;51.406;6.856;2022-12-29T05:44:17;11.40;99.90
3713;DHT22;1872;51.406;6.856;2022-12-29T05:46:43;11.30;99.90
3713;DHT22;1872;51.406;6.856;2022-12-29T05:49:09;11.10;99.90
3713;DHT22;1872;51.406;6.856;2022-12-29T05:51:34;11.10;99.90
3713;DHT22;1872;51.406;6.856;2022-12-29T05:54:00;10.90;99.90
3713;DHT22;1872;51.406;6.856;2022-12-29T05:56:25;10.90;99.90
3713;DHT22;1872;51.406;6.856;2022-12-29T05:58:51;10.80;99.90
3713;DHT22;1872;51.406;6.856;2022-12-29T06:01:17;10.80;99.90
3713;DHT22;1872;51.406;6.856;2022-12-29T06:03:42;10.70;99.90
3713;DHT22;1872;51.406;6.856;2022-12-29T06:06:08;10.70;99.90
3713;DHT22;1872;51.406;6.856;2022-12-29T06:08:34;10.70;99.90
3713;DHT22;1872;51.406;6.856;2022-12-29T06:11:00;10.70;99.90
3713;DHT22;1872;51.406;6.856;2022-12-29T06:13:25;10.60;99.90
3713;DHT22;1872;51.406;6.856;2022-12-29T06:15:51;10.60;99.90
3713;DHT22;1872;51.406;6.856;2022-12-29T06:18:17;10.60;99.90
3713;DHT22;1872;51.406;6.856;2022-12-29T06:20:42;10.50;99.90
3713;DHT22;1872;51.406;6.856;2022-12-29T06:23:08;10.50;99.90
3713;DHT22;1872;51.406;6.856;2022-12-29T06:25:34;10.40;99.90
3713;DHT22;1872;51.406;6.856;2022-12-29T06:28:02;10.40;99.90
3713;DHT22;1872;51.406;6.856;2022-12-29T06:30:27;10.40;99.90
3713;DHT22;1872;51.406;6.856;2022-12-29T06:32:53;10.40;99.90
3713;DHT22;1872;51.406;6.856;2022-12-29T06:35:20;10.50;99.90
3713;DHT22;1872;51.406;6.856;2022-12-29T06:37:47;10.60;99.90
3713;DHT22;1872;51.406;6.856;2022-12-29T06:40:13;10.60;99.90
3713;DHT22;1872;51.406;6.856;2022-12-29T06:42:39;10.70;99.90
3713;DHT22;1872;51.406;6.856;2022-12-29T06:45:05;10.70;99.90
3713;DHT22;1872;51.406;6.856;2022-12-29T06:47:31;10.80;99.90
3713;DHT22;1872;51.406;6.856;2022-12-29T06:49:56;10.80;99.90
3713;DHT22;1872;51.406;6.856;2022-12-29T06:52:22;10.80;99.90
3713;DHT22;1872;51.406;6.856;2022-12-29T06:54:49;10.90;99.90
3713;DHT22;1872;51.406;6.856;2022-12-29T06:57:15;10.90;99.90
3713;DHT22;1872;51.406;6.856;2022-12-29T06:59:40;10.90;99.90
3713;DHT22;1872;51.406;6.856;2022-12-29T07:02:06;10.90;99.90
3713;DHT22;1872;51.406;6.856;2022-12-29T07:04:32;10.90;99.90
3713;DHT22;1872;51.406;6.856;2022-12-29T07:06:58;10.90;99.90
3713;DHT22;1872;51.406;6.856;2022-12-29T07:09:23;10.90;99.90
3713;DHT22;1872;51.406;6.856;2022-12-29T07:11:49;10.90;99.90
3713;DHT22;1872;51.406;6.856;2022-12-29T07:14:15;10.90;99.90
3713;DHT22;1872;51.406;6.856;2022-12-29T07:16:41;11.00;99.90
3713;DHT22;1872;51.406;6.856;2022-12-29T07:19:06;10.90;99.90
3713;DHT22;1872;51.406;6.856;2022-12-29T07:21:32;11.00;99.90
3713;DHT22;1872;51.406;6.856;2022-12-29T07:23:57;11.00;99.90
3713;DHT22;1872;51.406;6.856;2022-12-29T07:26:23;11.00;99.90
3713;DHT22;1872;51.406;6.856;2022-12-29T07:28:49;11.00;99.90
3713;DHT22;1872;51.406;6.856;2022-12-29T07:31:21;11.00;99.90
3713;DHT22;1872;51.406;6.856;2022-12-29T07:33:47;11.00;99.90
3713;DHT22;1872;51.406;6.856;2022-12-29T07:36:14;11.00;99.90
3713;DHT22;1872;51.406;6.856;2022-12-29T07:38:41;11.00;99.90
3713;DHT22;1872;51.406;6.856;2022-12-29T07:41:06;11.00;99.90
3713;DHT22;1872;51.406;6.856;2022-12-29T07:43:32;11.00;99.90
3713;DHT22;1872;51.406;6.856;2022-12-29T07:45:58;11.00;99.90
3713;DHT22;1872;51.406;6.856;2022-12-29T07:48:24;11.00;99.90
3713;DHT22;1872;51.406;6.856;2022-12-29T07:50:50;11.00;99.90
3713;DHT22;1872;51.406;6.856;2022-12-29T07:53:16;11.00;99.90
3713;DHT22;1872;51.406;6.856;2022-12-29T07:55:41;11.00;99.90
3713;DHT22;1872;51.406;6.856;2022-12-29T07:58:07;11.00;99.90
3713;DHT22;1872;51.406;6.856;2022-12-29T08:00:33;11.00;99.90
3713;DHT22;1872;51.406;6.856;2022-12-29T08:02:58;11.00;99.90
3713;DHT22;1872;51.406;6.856;2022-12-29T08:05:24;11.00;99.90
3713;DHT22;1872;51.406;6.856;2022-12-29T08:07:50;11.00;99.90
3713;DHT22;1872;51.406;6.856;2022-12-29T08:10:17;11.00;99.90
3713;DHT22;1872;51.406;6.856;2022-12-29T08:12:43;11.00;99.90
3713;DHT22;1872;51.406;6.856;2022-12-29T08:15:10;11.00;99.90
3713;DHT22;1872;51.406;6.856;2022-12-29T08:17:36;11.00;99.90
3713;DHT22;1872;51.406;6.856;2022-12-29T08:20:02;11.00;99.90
3713;DHT22;1872;51.406;6.856;2022-12-29T08:22:28;10.90;99.90
3713;DHT22;1872;51.406;6.856;2022-12-29T08:24:54;10.90;99.90
3713;DHT22;1872;51.406;6.856;2022-12-29T08:27:19;10.90;99.90
3713;DHT22;1872;51.406;6.856;2022-12-29T08:29:45;10.90;99.90
3713;DHT22;1872;51.406;6.856;2022-12-29T08:32:11;10.90;99.90
3713;DHT22;1872;51.406;6.856;2022-12-29T08:34:37;10.90;99.90
3713;DHT22;1872;51.406;6.856;2022-12-29T08:37:02;10.90;99.90
3713;DHT22;1872;51.406;6.856;2022-12-29T08:39:29;10.90;99.90
3713;DHT22;1872;51.406;6.856;2022-12-29T08:41:55;11.00;99.90
3713;DHT22;1872;51.406;6.856;2022-12-29T08:44:21;11.00;99.90
3713;DHT22;1872;51.406;6.856;2022-12-29T08:46:47;11.00;99.90
3713;DHT22;1872;51.406;6.856;2022-12-29T08:49:13;11.00;99.90
3713;DHT22;1872;51.406;6.856;2022-12-29T08:51:39;11.00;99.90
3713;DHT22;1872;51.406;6.856;2022-12-29T08:54:05;10.90;99.90
3713;DHT22;1872;51.406;6.856;2022-12-29T08:56:31;10.90;99.90
3713;DHT22;1872;51.406;6.856;2022-12-29T08:58:57;10.90;99.90
3713;DHT22;1872;51.406;6.856;2022-12-29T09:01:22;10.80;99.90
3713;DHT22;1872;51.406;6.856;2022-12-29T09:03:48;10.80;99.90
3713;DHT22;1872;51.406;6.856;2022-12-29T09:06:16;10.70;99.90
3713;DHT22;1872;51.406;6.856;2022-12-29T09:08:42;10.70;99.90
3713;DHT22;1872;51.406;6.856;2022-12-29T09:11:20;10.60;99.90
3713;DHT22;1872;51.406;6.856;2022-12-29T09:13:47;10.60;99.90
3713;DHT22;1872;51.406;6.856;2022-12-29T09:16:14;10.60;99.90
3713;DHT22;1872;51.406;6.856;2022-12-29T09:18:40;10.60;99.90
3713;DHT22;1872;51.406;6.856;2022-12-29T09:21:07;10.70;99.90
3713;DHT22;1872;51.406;6.856;2022-12-29T09:23:33;10.80;99.90
3713;DHT22;1872;51.406;6.856;2022-12-29T09:25:59;10.90;99.90
3713;DHT22;1872;51.406;6.856;2022-12-29T09:28:25;11.00;99.90
3713;DHT22;1872;51.406;6.856;2022-12-29T09:30:51;11.10;99.90
3713;DHT22;1872;51.406;6.856;2022-12-29T09:33:17;11.10;99.90
3713;DHT22;1872;51.406;6.856;2022-12-29T09:35:44;11.10;99.90
3713;DHT22;1872;51.406;6.856;2022-12-29T09:38:11;11.10;99.90
3713;DHT22;1872;51.406;6.856;2022-12-29T09:40:38;11.10;99.90
3713;DHT22;1872;51.406;6.856;2022-12-29T09:48:33;11.10;99.90
3713;DHT22;1872;51.406;6.856;2022-12-29T09:51:03;11.10;99.90
3713;DHT22;1872;51.406;6.856;2022-12-29T09:53:36;11.10;99.90
3713;DHT22;1872;51.406;6.856;2022-12-29T09:56:05;11.10;99.90
3713;DHT22;1872;51.406;6.856;2022-12-29T10:01:44;11.10;99.90
3713;DHT22;1872;51.406;6.856;2022-12-29T10:04:14;11.10;99.90
3713;DHT22;1872;51.406;6.856;2022-12-29T10:07:04;11.10;99.90
3713;DHT22;1872;51.406;6.856;2022-12-29T10:09:33;11.10;99.90
3713;DHT22;1872;51.406;6.856;2022-12-29T10:20:55;11.10;99.90
3713;DHT22;1872;51.406;6.856;2022-12-29T10:23:33;11.10;99.90
3713;DHT22;1872;51.406;6.856;2022-12-29T10:26:02;11.10;99.90
3713;DHT22;1872;51.406;6.856;2022-12-29T10:28:42;11.10;99.90
3713;DHT22;1872;51.406;6.856;2022-12-29T10:31:25;11.10;99.90
3713;DHT22;1872;51.406;6.856;2022-12-29T10:33:57;11.10;99.90
3713;DHT22;1872;51.406;6.856;2022-12-29T10:36:35;11.20;99.90
3713;DHT22;1872;51.406;6.856;2022-12-29T10:44:34;11.20;99.90
3713;DHT22;1872;51.406;6.856;2022-12-29T10:47:09;11.20;99.90
3713;DHT22;1872;51.406;6.856;2022-12-29T10:49:42;11.30;99.90
3713;DHT22;1872;51.406;6.856;2022-12-29T10:52:09;11.30;99.90
3713;DHT22;1872;51.406;6.856;2022-12-29T10:55:03;11.30;99.90
3713;DHT22;1872;51.406;6.856;2022-12-29T10:57:39;11.40;99.90
3713;DHT22;1872;51.406;6.856;2022-12-29T11:00:17;11.40;99.90
3713;DHT22;1872;51.406;6.856;2022-12-29T11:03:07;11.40;99.90
3713;DHT22;1872;51.406;6.856;2022-12-29T11:05:55;11.40;99.90
3713;DHT22;1872;51.406;6.856;2022-12-29T11:08:30;11.40;99.90
3713;DHT22;1872;51.406;6.856;2022-12-29T11:11:07;11.40;99.90
3713;DHT22;1872;51.406;6.856;2022-12-29T11:13:35;11.40;99.90
3713;DHT22;1872;51.406;6.856;2022-12-29T11:16:11;11.30;99.90
3713;DHT22;1872;51.406;6.856;2022-12-29T11:18:39;11.30;99.90
3713;DHT22;1872;51.406;6.856;2022-12-29T11:24:08;11.30;99.90
3713;DHT22;1872;51.406;6.856;2022-12-29T11:26:43;11.30;99.90
3713;DHT22;1872;51.406;6.856;2022-12-29T11:32:11;11.40;99.90
3713;DHT22;1872;51.406;6.856;2022-12-29T11:34:37;11.40;99.90
3713;DHT22;1872;51.406;6.856;2022-12-29T11:39:57;11.40;99.90
3713;DHT22;1872;51.406;6.856;2022-12-29T11:42:39;11.40;99.90
3713;DHT22;1872;51.406;6.856;2022-12-29T11:45:17;11.40;99.90
3713;DHT22;1872;51.406;6.856;2022-12-29T11:47:50;11.50;99.90
3713;DHT22;1872;51.406;6.856;2022-12-29T11:50:20;11.50;99.90
3713;DHT22;1872;51.406;6.856;2022-12-29T11:52:49;11.50;99.90
3713;DHT22;1872;51.406;6.856;2022-12-29T11:55:21;11.40;99.90
3713;DHT22;1872;51.406;6.856;2022-12-29T11:57:48;11.40;99.90
3713;DHT22;1872;51.406;6.856;2022-12-29T12:00:19;11.40;99.90
3713;DHT22;1872;51.406;6.856;2022-12-29T12:02:58;11.40;99.90
3713;DHT22;1872;51.406;6.856;2022-12-29T12:05:41;11.40;99.90
3713;DHT22;1872;51.406;6.856;2022-12-29T12:08:33;11.40;99.90
3713;DHT22;1872;51.406;6.856;2022-12-29T12:16:20;11.50;99.90
3713;DHT22;1872;51.406;6.856;2022-12-29T12:19:02;11.50;99.90
3713;DHT22;1872;51.406;6.856;2022-12-29T12:21:45;11.50;99.90
3713;DHT22;1872;51.406;6.856;2022-12-29T12:27:52;11.50;99.90
3713;DHT22;1872;51.406;6.856;2022-12-29T12:30:21;11.50;99.90
3713;DHT22;1872;51.406;6.856;2022-12-29T12:33:06;11.50;99.90
3713;DHT22;1872;51.406;6.856;2022-12-29T12:36:03;11.50;99.90
3713;DHT22;1872;51.406;6.856;2022-12-29T12:39:25;11.50;99.90
3713;DHT22;1872;51.406;6.856;2022-12-29T12:44:46;11.50;99.90
3713;DHT22;1872;51.406;6.856;2022-12-29T12:53:19;11.60;99.90
3713;DHT22;1872;51.406;6.856;2022-12-29T13:01:18;11.60;99.90
3713;DHT22;1872;51.406;6.856;2022-12-29T13:06:44;11.50;99.90
3713;DHT22;1872;51.406;6.856;2022-12-29T13:12:38;11.50;99.90
3713;DHT22;1872;51.406;6.856;2022-12-29T13:18:06;11.50;99.90
3713;DHT22;1872;51.406;6.856;2022-12-29T13:20:39;11.50;99.90
3713;DHT22;1872;51.406;6.856;2022-12-29T13:26:25;11.40;99.90
3713;DHT22;1872;51.406;6.856;2022-12-29T13:29:18;11.50;99.90
3713;DHT22;1872;51.406;6.856;2022-12-29T13:32:14;11.50;99.90
3713;DHT22;1872;51.406;6.856;2022-12-29T13:37:20;11.50;99.90
3713;DHT22;1872;51.406;6.856;2022-12-29T13:40:11;11.40;99.90
3713;DHT22;1872;51.406;6.856;2022-12-29T13:42:39;11.30;99.90
3713;DHT22;1872;51.406;6.856;2022-12-29T13:45:16;11.30;99.90
3713;DHT22;1872;51.406;6.856;2022-12-29T13:47:53;11.30;99.90
3713;DHT22;1872;51.406;6.856;2022-12-29T13:50:26;11.20;99.90
3713;DHT22;1872;51.406;6.856;2022-12-29T13:56:10;11.10;99.90
3713;DHT22;1872;51.406;6.856;2022-12-29T13:58:52;11.10;99.90
3713;DHT22;1872;51.406;6.856;2022-12-29T14:01:31;11.10;99.90
3713;DHT22;1872;51.406;6.856;2022-12-29T14:04:02;11.10;99.90
3713;DHT22;1872;51.406;6.856;2022-12-29T14:06:31;11.00;99.90
3713;DHT22;1872;51.406;6.856;2022-12-29T14:09:03;11.00;99.90
3713;DHT22;1872;51.406;6.856;2022-12-29T14:11:35;11.00;99.90
3713;DHT22;1872;51.406;6.856;2022-12-29T14:14:24;11.00;99.90
3713;DHT22;1872;51.406;6.856;2022-12-29T14:16:51;11.00;99.90
3713;DHT22;1872;51.406;6.856;2022-12-29T14:19:23;11.00;99.90
3713;DHT22;1872;51.406;6.856;2022-12-29T14:22:00;11.10;99.90
3713;DHT22;1872;51.406;6.856;2022-12-29T14:29:51;11.10;99.90
3713;DHT22;1872;51.406;6.856;2022-12-29T14:38:18;11.10;99.90
3713;DHT22;1872;51.406;6.856;2022-12-29T14:40:46;11.00;99.90
3713;DHT22;1872;51.406;6.856;2022-12-29T14:43:24;11.00;99.90
3713;DHT22;1872;51.406;6.856;2022-12-29T14:45:59;11.00;99.90
3713;DHT22;1872;51.406;6.856;2022-12-29T14:48:39;11.00;99.90
3713;DHT22;1872;51.406;6.856;2022-12-29T14:51:27;11.00;99.90
3713;DHT22;1872;51.406;6.856;2022-12-29T14:53:54;11.00;99.90
3713;DHT22;1872;51.406;6.856;2022-12-29T14:56:24;11.00;99.90
3713;DHT22;1872;51.406;6.856;2022-12-29T14:58:53;10.90;99.90
3713;DHT22;1872;51.406;6.856;2022-12-29T15:04:05;10.90;99.90
3713;DHT22;1872;51.406;6.856;2022-12-29T15:06:38;10.90;99.90
3713;DHT22;1872;51.406;6.856;2022-12-29T15:11:55;10.90;99.90
3713;DHT22;1872;51.406;6.856;2022-12-29T15:14:47;10.90;99.90
3713;DHT22;1872;51.406;6.856;2022-12-29T15:19:55;10.80;99.90
3713;DHT22;1872;51.406;6.856;2022-12-29T15:22:22;10.80;99.90
3713;DHT22;1872;51.406;6.856;2022-12-29T15:24:51;10.90;99.90
3713;DHT22;1872;51.406;6.856;2022-12-29T15:27:23;11.00;99.90
3713;DHT22;1872;51.406;6.856;2022-12-29T15:30:00;11.40;99.90
3713;DHT22;1872;51.406;6.856;2022-12-29T15:32:29;12.20;99.90
3713;DHT22;1872;51.406;6.856;2022-12-29T15:34:57;12.60;99.90
3713;DHT22;1872;51.406;6.856;2022-12-29T15:37:31;12.80;99.90
3713;DHT22;1872;51.406;6.856;2022-12-29T15:39:57;13.10;99.90
3713;DHT22;1872;51.406;6.856;2022-12-29T15:45:18;12.70;99.90
3713;DHT22;1872;51.406;6.856;2022-12-29T15:47:45;12.50;99.90
3713;DHT22;1872;51.406;6.856;2022-12-29T15:50:24;12.60;99.90
3713;DHT22;1872;51.406;6.856;2022-12-29T15:52:51;12.50;99.90
3713;DHT22;1872;51.406;6.856;2022-12-29T15:55:46;12.50;99.90
3713;DHT22;1872;51.406;6.856;2022-12-29T15:58:22;12.50;99.90
3713;DHT22;1872;51.406;6.856;2022-12-29T16:00:51;12.70;99.90
3713;DHT22;1872;51.406;6.856;2022-12-29T16:03:18;12.50;99.90
3713;DHT22;1872;51.406;6.856;2022-12-29T16:05:58;12.30;99.90
3713;DHT22;1872;51.406;6.856;2022-12-29T16:08:35;12.00;99.90
3713;DHT22;1872;51.406;6.856;2022-12-29T16:11:33;11.80;99.90
3713;DHT22;1872;51.406;6.856;2022-12-29T16:14:01;11.50;99.90
3713;DHT22;1872;51.406;6.856;2022-12-29T16:16:33;11.40;99.90
3713;DHT22;1872;51.406;6.856;2022-12-29T16:19:05;11.20;99.90
3713;DHT22;1872;51.406;6.856;2022-12-29T16:21:34;11.10;99.90
3713;DHT22;1872;51.406;6.856;2022-12-29T16:24:06;11.00;99.90
3713;DHT22;1872;51.406;6.856;2022-12-29T16:26:33;10.90;99.90
3713;DHT22;1872;51.406;6.856;2022-12-29T16:29:01;10.80;99.90
3713;DHT22;1872;51.406;6.856;2022-12-29T16:31:36;10.80;99.90
3713;DHT22;1872;51.406;6.856;2022-12-29T16:34:26;10.70;99.90
3713;DHT22;1872;51.406;6.856;2022-12-29T16:36:58;10.60;99.90
3713;DHT22;1872;51.406;6.856;2022-12-29T16:39:38;10.50;99.90
3713;DHT22;1872;51.406;6.856;2022-12-29T16:42:33;10.40;99.90
3713;DHT22;1872;51.406;6.856;2022-12-29T16:47:49;10.40;99.90
3713;DHT22;1872;51.406;6.856;2022-12-29T16:50:35;10.50;99.90
3713;DHT22;1872;51.406;6.856;2022-12-29T16:53:02;10.50;99.90
3713;DHT22;1872;51.406;6.856;2022-12-29T16:55:29;10.40;99.90
3713;DHT22;1872;51.406;6.856;2022-12-29T16:57:55;10.50;99.90
3713;DHT22;1872;51.406;6.856;2022-12-29T17:00:34;10.40;99.90
3713;DHT22;1872;51.406;6.856;2022-12-29T17:03:01;10.50;99.90
3713;DHT22;1872;51.406;6.856;2022-12-29T17:05:27;10.50;99.90
3713;DHT22;1872;51.406;6.856;2022-12-29T17:07:53;10.60;99.90
3713;DHT22;1872;51.406;6.856;2022-12-29T17:10:20;10.60;99.90
3713;DHT22;1872;51.406;6.856;2022-12-29T17:12:47;10.80;99.90
3713;DHT22;1872;51.406;6.856;2022-12-29T17:15:27;10.90;99.90
3713;DHT22;1872;51.406;6.856;2022-12-29T17:17:59;10.90;99.90
3713;DHT22;1872;51.406;6.856;2022-12-29T17:20:29;10.90;99.90
3713;DHT22;1872;51.406;6.856;2022-12-29T17:22:56;10.80;99.90
3713;DHT22;1872;51.406;6.856;2022-12-29T17:25:26;10.70;99.90
3713;DHT22;1872;51.406;6.856;2022-12-29T17:28:06;10.50;99.90
3713;DHT22;1872;51.406;6.856;2022-12-29T17:30:35;10.40;99.90
3713;DHT22;1872;51.406;6.856;2022-12-29T17:33:06;10.40;99.90
3713;DHT22;1872;51.406;6.856;2022-12-29T17:35:35;10.30;99.90
3713;DHT22;1872;51.406;6.856;2022-12-29T17:38:00;10.20;99.90
3713;DHT22;1872;51.406;6.856;2022-12-29T17:40:28;10.10;99.90
3713;DHT22;1872;51.406;6.856;2022-12-29T17:42:56;10.00;99.90
3713;DHT22;1872;51.406;6.856;2022-12-29T17:45:24;9.90;99.90
3713;DHT22;1872;51.406;6.856;2022-12-29T17:47:51;9.80;99.90
3713;DHT22;1872;51.406;6.856;2022-12-29T17:50:19;9.80;99.90
3713;DHT22;1872;51.406;6.856;2022-12-29T17:52:51;9.80;99.90
3713;DHT22;1872;51.406;6.856;2022-12-29T17:55:19;9.70;99.90
3713;DHT22;1872;51.406;6.856;2022-12-29T17:57:45;9.60;99.90
3713;DHT22;1872;51.406;6.856;2022-12-29T18:03:10;9.50;99.90
3713;DHT22;1872;51.406;6.856;2022-12-29T18:05:38;9.40;99.90
3713;DHT22;1872;51.406;6.856;2022-12-29T18:08:04;9.40;99.90
3713;DHT22;1872;51.406;6.856;2022-12-29T18:10:30;9.30;99.90
3713;DHT22;1872;51.406;6.856;2022-12-29T18:12:59;9.10;99.90
3713;DHT22;1872;51.406;6.856;2022-12-29T18:15:26;9.00;99.90
3713;DHT22;1872;51.406;6.856;2022-12-29T18:20:26;8.70;99.90
3713;DHT22;1872;51.406;6.856;2022-12-29T18:22:52;8.60;99.90
3713;DHT22;1872;51.406;6.856;2022-12-29T18:25:25;8.50;99.90
3713;DHT22;1872;51.406;6.856;2022-12-29T18:27:51;8.50;99.90
3713;DHT22;1872;51.406;6.856;2022-12-29T18:30:17;8.50;99.90
3713;DHT22;1872;51.406;6.856;2022-12-29T18:32:43;8.40;99.90
3713;DHT22;1872;51.406;6.856;2022-12-29T18:35:25;8.40;99.90
3713;DHT22;1872;51.406;6.856;2022-12-29T18:37:51;8.40;99.90